createdAt,value
2022-11-05T00:00:21.778Z,97308.53
2022-11-05T00:03:42.138Z,97312.94
2022-11-05T00:07:03.227Z,97316.47
2022-11-05T00:10:29.721Z,97328.25
2022-11-05T00:13:50.135Z,97325.94
2022-11-05T00:16:51.975Z,97328.03
2022-11-05T00:19:54.139Z,97325.94
2022-11-05T00:23:24.712Z,97322.72
2022-11-05T00:26:26.605Z,97327.59
2022-11-05T00:29:29.972Z,97337.00
2022-11-05T00:32:33.031Z,97337.09
2022-11-05T00:35:35.025Z,97348.22
2022-11-05T00:38:37.135Z,97348.13
2022-11-05T00:41:38.973Z,97347.47
2022-11-05T00:44:59.518Z,97355.72
2022-11-05T00:48:19.893Z,97351.19
2022-11-05T00:51:21.747Z,97355.81
2022-11-05T00:54:26.054Z,97355.31
2022-11-05T00:57:27.857Z,97353.00
2022-11-05T01:00:31.342Z,97354.66
2022-11-05T01:03:35.802Z,97350.63
2022-11-05T01:06:37.536Z,97350.31
2022-11-05T01:09:39.359Z,97356.59
2022-11-05T01:12:41.292Z,97355.09
2022-11-05T01:15:43.518Z,97361.22
2022-11-05T01:18:45.352Z,97366.38
2022-11-05T01:21:47.343Z,97360.47
2022-11-05T01:24:49.136Z,97358.38
2022-11-05T01:27:51.027Z,97367.03
2022-11-05T01:30:57.025Z,97365.94
2022-11-05T01:34:00.358Z,97368.69
2022-11-05T01:37:02.283Z,97377.22
2022-11-05T01:40:04.873Z,97378.31
2022-11-05T01:43:15.141Z,97371.75
2022-11-05T01:46:21.442Z,97381.63
2022-11-05T01:49:29.950Z,97382.13
2022-11-05T01:52:33.156Z,97380.88
2022-11-05T01:55:38.696Z,97386.50
2022-11-05T01:58:46.504Z,97378.28
2022-11-05T02:01:48.852Z,97384.00
2022-11-05T02:04:57.508Z,97392.91
2022-11-05T02:07:59.867Z,97412.25
2022-11-05T02:11:01.725Z,97410.97
2022-11-05T02:14:03.677Z,97406.25
2022-11-05T02:17:09.972Z,97409.03
2022-11-05T02:20:11.660Z,97403.00
2022-11-05T02:23:31.787Z,97404.34
2022-11-05T02:26:56.856Z,97396.78
2022-11-05T02:30:24.327Z,97386.06
2022-11-05T02:33:57.173Z,97392.69
2022-11-05T02:37:10.926Z,97395.38
2022-11-05T02:40:27.304Z,97388.13
2022-11-05T02:43:48.129Z,97394.31
2022-11-05T02:47:18.432Z,97392.97
2022-11-05T02:50:28.251Z,97381.91
2022-11-05T02:53:35.106Z,97385.78
2022-11-05T02:56:39.870Z,97391.47
2022-11-05T02:59:41.714Z,97400.03
2022-11-05T03:02:43.511Z,97410.09
2022-11-05T03:06:13.446Z,97414.66
2022-11-05T03:09:24.329Z,97414.94
2022-11-05T03:13:03.245Z,97419.00
2022-11-05T03:16:13.715Z,97410.03
2022-11-05T03:19:36.496Z,97409.47
2022-11-05T03:22:50.063Z,97416.66
2022-11-05T03:25:57.308Z,97429.00
2022-11-05T03:29:01.666Z,97426.00
2022-11-05T03:32:04.816Z,97422.56
2022-11-05T03:35:15.322Z,97424.00
2022-11-05T03:38:23.080Z,97423.53
2022-11-05T03:41:26.080Z,97421.75
2022-11-05T03:44:31.507Z,97419.97
2022-11-05T03:47:37.669Z,97425.19
2022-11-05T03:50:45.652Z,97425.75
2022-11-05T03:53:50.856Z,97424.25
2022-11-05T03:57:01.679Z,97423.16
2022-11-05T04:00:08.013Z,97417.19
2022-11-05T04:03:13.482Z,97419.63
2022-11-05T04:06:34.231Z,97411.94
2022-11-05T04:09:54.578Z,97422.25
2022-11-05T04:13:14.917Z,97430.91
2022-11-05T04:16:35.507Z,97424.03
2022-11-05T04:19:57.995Z,97420.72
2022-11-05T04:23:23.500Z,97432.56
2022-11-05T04:26:25.430Z,97435.81
2022-11-05T04:29:45.899Z,97444.34
2022-11-05T04:32:56.972Z,97432.59
2022-11-05T04:36:00.349Z,97443.34
2022-11-05T04:39:02.191Z,97447.44
2022-11-05T04:42:04.120Z,97437.13
2022-11-05T04:45:06.161Z,97434.59
2022-11-05T04:48:08.881Z,97440.53
2022-11-05T04:51:10.629Z,97439.22
2022-11-05T04:54:12.343Z,97456.09
2022-11-05T04:57:14.005Z,97458.88
2022-11-05T05:00:16.179Z,97451.81
2022-11-05T05:03:18.211Z,97462.91
2022-11-05T05:06:20.448Z,97468.34
2022-11-05T05:09:22.500Z,97479.84
2022-11-05T05:12:24.456Z,97479.69
2022-11-05T05:15:26.283Z,97478.19
2022-11-05T05:18:29.124Z,97468.44
2022-11-05T05:21:39.371Z,97464.19
2022-11-05T05:24:47.361Z,97470.13
2022-11-05T05:27:51.754Z,97469.50
2022-11-05T05:30:58.624Z,97480.31
2022-11-05T05:34:00.683Z,97481.47
2022-11-05T05:37:02.688Z,97477.75
2022-11-05T05:40:04.698Z,97489.81
2022-11-05T05:43:06.697Z,97492.47
2022-11-05T05:46:11.804Z,97499.06
2022-11-05T05:49:13.815Z,97504.28
2022-11-05T05:52:15.963Z,97516.66
2022-11-05T05:55:18.051Z,97510.91
2022-11-05T05:58:20.052Z,97515.59
2022-11-05T06:01:22.336Z,97520.25
2022-11-05T06:04:24.343Z,97531.69
2022-11-05T06:07:37.033Z,97535.13
2022-11-05T06:10:39.386Z,97533.56
2022-11-05T06:13:41.409Z,97523.13
2022-11-05T06:16:43.585Z,97534.53
2022-11-05T06:19:45.548Z,97531.28
2022-11-05T06:23:08.351Z,97540.06
2022-11-05T06:26:13.948Z,97556.41
2022-11-05T06:29:15.901Z,97570.28
2022-11-05T06:32:17.974Z,97568.66
2022-11-05T06:35:19.966Z,97566.44
2022-11-05T06:38:22.413Z,97572.75
2022-11-05T06:41:24.541Z,97571.53
2022-11-05T06:44:27.604Z,97586.19
2022-11-05T06:47:29.707Z,97596.09
2022-11-05T06:50:31.843Z,97592.53
2022-11-05T06:53:34.741Z,97602.69
2022-11-05T06:56:36.968Z,97613.41
2022-11-05T06:59:40.111Z,97609.16
2022-11-05T07:02:42.279Z,97602.03
2022-11-05T07:05:47.063Z,97597.22
2022-11-05T07:08:49.708Z,97596.22
2022-11-05T07:11:51.522Z,97617.28
2022-11-05T07:14:54.010Z,97620.06
2022-11-05T07:18:00.720Z,97625.94
2022-11-05T07:21:02.764Z,97623.34
2022-11-05T07:24:05.310Z,97625.81
2022-11-05T07:27:07.254Z,97631.59
2022-11-05T07:30:11.238Z,97617.69
2022-11-05T07:33:14.203Z,97617.81
2022-11-05T07:36:16.310Z,97616.56
2022-11-05T07:39:18.737Z,97617.78
2022-11-05T07:42:20.913Z,97612.28
2022-11-05T07:45:24.293Z,97619.97
2022-11-05T07:48:26.519Z,97615.00
2022-11-05T07:51:28.547Z,97612.00
2022-11-05T07:54:30.845Z,97616.25
2022-11-05T07:57:32.753Z,97621.47
2022-11-05T08:00:35.146Z,97620.78
2022-11-05T08:03:37.847Z,97626.53
2022-11-05T08:06:39.850Z,97623.44
2022-11-05T08:09:41.763Z,97625.59
2022-11-05T08:12:43.714Z,97620.00
2022-11-05T08:15:45.650Z,97607.41
2022-11-05T08:18:48.907Z,97624.97
2022-11-05T08:21:51.081Z,97623.75
2022-11-05T08:24:53.707Z,97628.00
2022-11-05T08:28:01.482Z,97646.59
2022-11-05T08:31:06.965Z,97637.22
2022-11-05T08:34:09.679Z,97637.00
2022-11-05T08:37:12.482Z,97634.28
2022-11-05T08:40:14.422Z,97642.38
2022-11-05T08:43:16.460Z,97647.53
2022-11-05T08:46:19.277Z,97656.75
2022-11-05T08:49:21.943Z,97640.97
2022-11-05T08:52:24.028Z,97633.94
2022-11-05T08:55:26.363Z,97630.88
2022-11-05T08:58:28.527Z,97616.81
2022-11-05T09:01:30.756Z,97625.34
2022-11-05T09:04:32.885Z,97639.84
2022-11-05T09:07:35.893Z,97643.81
2022-11-05T09:10:38.453Z,97639.75
2022-11-05T09:13:40.880Z,97640.59
2022-11-05T09:16:43.008Z,97644.88
2022-11-05T09:19:45.788Z,97658.66
2022-11-05T09:22:47.905Z,97650.47
2022-11-05T09:25:50.006Z,97645.47
2022-11-05T09:28:51.960Z,97644.88
2022-11-05T09:31:56.708Z,97634.75
2022-11-05T09:35:01.490Z,97645.75
2022-11-05T09:38:03.818Z,97652.78
2022-11-05T09:41:09.041Z,97657.13
2022-11-05T09:44:25.418Z,97660.72
2022-11-05T09:47:32.028Z,97669.34
2022-11-05T09:50:38.558Z,97663.50
2022-11-05T09:53:41.383Z,97672.03
2022-11-05T09:56:43.918Z,97667.81
2022-11-05T09:59:51.181Z,97659.22
2022-11-05T10:02:59.688Z,97668.41
2022-11-05T10:06:12.398Z,97666.53
2022-11-05T10:09:39.526Z,97672.97
2022-11-05T10:12:52.381Z,97679.56
2022-11-05T10:16:13.268Z,97672.88
2022-11-05T10:19:26.764Z,97681.22
2022-11-05T10:22:29.162Z,97677.56
2022-11-05T10:25:33.768Z,97686.09
2022-11-05T10:28:35.991Z,97681.31
2022-11-05T10:31:38.168Z,97678.09
2022-11-05T10:34:40.144Z,97679.88
2022-11-05T10:37:42.336Z,97685.50
2022-11-05T10:41:05.335Z,97697.09
2022-11-05T10:44:27.730Z,97691.63
2022-11-05T10:47:39.017Z,97697.75
2022-11-05T10:50:41.731Z,97715.72
2022-11-05T10:53:58.727Z,97709.66
2022-11-05T10:57:36.910Z,97706.69
2022-11-05T11:00:39.682Z,97702.91
2022-11-05T11:03:49.824Z,97703.22
2022-11-05T11:06:54.343Z,97709.28
2022-11-05T11:09:56.454Z,97704.50
2022-11-05T11:12:58.700Z,97704.84
2022-11-05T11:16:23.593Z,97710.69
2022-11-05T11:19:36.065Z,97716.47
2022-11-05T11:22:39.054Z,97729.00
2022-11-05T11:26:01.747Z,97733.25
2022-11-05T11:29:16.967Z,97726.28
2022-11-05T11:32:24.358Z,97727.66
2022-11-05T11:35:26.744Z,97735.13
2022-11-05T11:38:31.451Z,97734.59
2022-11-05T11:41:39.440Z,97735.41
2022-11-05T11:44:45.571Z,97732.44
2022-11-05T11:47:49.158Z,97723.66
2022-11-05T11:50:51.415Z,97733.03
2022-11-05T11:53:57.270Z,97737.59
2022-11-05T11:56:59.655Z,97733.63
2022-11-05T12:00:08.802Z,97722.25
2022-11-05T12:03:11.779Z,97722.72
2022-11-05T12:06:33.432Z,97721.56
2022-11-05T12:10:14.431Z,97719.69
2022-11-05T12:13:19.526Z,97730.69
2022-11-05T12:16:30.212Z,97717.47
2022-11-05T12:19:38.364Z,97710.56
2022-11-05T12:23:00.624Z,97718.63
2022-11-05T12:26:36.612Z,97735.13
2022-11-05T12:30:04.000Z,97738.09
2022-11-05T12:33:12.570Z,97725.53
2022-11-05T12:37:00.533Z,97733.03
2022-11-05T12:40:24.098Z,97731.88
2022-11-05T12:44:00.981Z,97733.78
2022-11-05T12:47:31.933Z,97735.34
2022-11-05T12:50:43.123Z,97732.88
2022-11-05T12:54:01.905Z,97737.75
2022-11-05T12:57:18.090Z,97736.59
2022-11-05T13:00:22.519Z,97748.44
2022-11-05T13:03:25.018Z,97750.69
2022-11-05T13:06:42.540Z,97739.22
2022-11-05T13:09:52.943Z,97759.53
2022-11-05T13:13:29.826Z,97761.69
2022-11-05T13:16:45.651Z,97759.66
2022-11-05T13:19:59.330Z,97775.69
2022-11-05T13:23:14.656Z,97775.31
2022-11-05T13:26:38.352Z,97776.28
2022-11-05T13:29:53.014Z,97797.53
2022-11-05T13:33:11.078Z,97793.34
2022-11-05T13:36:49.941Z,97801.38
2022-11-05T13:40:00.827Z,97805.50
2022-11-05T13:43:03.310Z,97814.53
2022-11-05T13:46:34.592Z,97817.16
2022-11-05T13:49:39.802Z,97827.63
2022-11-05T13:53:20.436Z,97834.41
2022-11-05T13:56:38.228Z,97837.47
2022-11-05T13:59:46.429Z,97848.91
2022-11-05T14:02:54.438Z,97838.56
2022-11-05T14:06:03.828Z,97847.16
2022-11-05T14:09:11.691Z,97851.13
2022-11-05T14:12:29.325Z,97850.31
2022-11-05T14:15:32.007Z,97852.56
2022-11-05T14:18:38.053Z,97855.53
2022-11-05T14:21:59.822Z,97861.06
2022-11-05T14:25:22.820Z,97870.28
2022-11-05T14:28:46.060Z,97877.19
2022-11-05T14:32:08.249Z,97883.53
2022-11-05T14:35:17.727Z,97875.50
2022-11-05T14:38:25.480Z,97882.78
2022-11-05T14:41:27.670Z,97891.09
2022-11-05T14:44:31.731Z,97894.25
2022-11-05T14:47:37.250Z,97888.91
2022-11-05T14:50:41.481Z,97883.38
2022-11-05T14:53:43.741Z,97890.69
2022-11-05T14:56:53.287Z,97889.59
2022-11-05T15:00:02.344Z,97897.72
2022-11-05T15:03:31.720Z,97900.34
2022-11-05T15:06:38.255Z,97897.44
2022-11-05T15:09:49.832Z,97904.75
2022-11-05T15:13:03.355Z,97906.84
2022-11-05T15:16:09.587Z,97914.69
2022-11-05T15:19:36.256Z,97913.72
2022-11-05T15:22:44.265Z,97910.16
2022-11-05T15:25:56.340Z,97916.34
2022-11-05T15:28:58.711Z,97914.81
2022-11-05T15:32:00.923Z,97908.75
2022-11-05T15:35:03.175Z,97921.19
2022-11-05T15:38:24.621Z,97934.41
2022-11-05T15:41:33.854Z,97927.00
2022-11-05T15:44:41.465Z,97938.72
2022-11-05T15:47:46.487Z,97937.84
2022-11-05T15:50:48.786Z,97942.41
2022-11-05T15:57:26.687Z,97950.41
2022-11-05T16:00:31.175Z,97952.88
2022-11-05T16:03:34.257Z,97961.69
2022-11-05T16:06:39.055Z,97966.66
2022-11-05T16:09:44.059Z,97967.78
2022-11-05T16:12:46.581Z,97968.06
2022-11-05T16:15:56.554Z,97966.94
2022-11-05T16:18:58.423Z,97974.78
2022-11-05T16:22:03.052Z,97963.50
2022-11-05T16:25:23.012Z,97964.91
2022-11-05T16:28:27.739Z,97963.22
2022-11-05T16:31:32.314Z,97965.56
2022-11-05T16:34:47.406Z,97971.78
2022-11-05T16:37:52.196Z,97968.06
2022-11-05T16:40:54.535Z,97969.16
2022-11-05T16:44:00.356Z,97968.19
2022-11-05T16:47:02.292Z,97979.75
2022-11-05T16:50:22.162Z,97979.63
2022-11-05T16:53:24.193Z,97978.25
2022-11-05T16:56:26.123Z,97990.09
2022-11-05T16:59:29.429Z,98001.13
2022-11-05T17:02:31.695Z,98002.09
2022-11-05T17:05:33.770Z,98001.81
2022-11-05T17:08:39.630Z,97998.38
2022-11-05T17:11:41.818Z,98010.78
2022-11-05T17:14:44.267Z,98010.50
2022-11-05T17:17:46.436Z,98003.31
2022-11-05T17:20:51.240Z,98007.19
2022-11-05T17:23:53.164Z,98008.84
2022-11-05T17:26:55.534Z,98004.72
2022-11-05T17:29:57.611Z,98006.50
2022-11-05T17:32:59.957Z,98009.94
2022-11-05T17:36:09.437Z,98006.25
2022-11-05T17:39:11.912Z,98012.97
2022-11-05T17:42:14.302Z,98019.72
2022-11-05T17:45:16.474Z,98014.91
2022-11-05T17:48:19.561Z,98017.38
2022-11-05T17:51:21.859Z,98022.75
2022-11-05T17:54:23.816Z,98022.75
2022-11-05T17:57:25.941Z,98032.69
2022-11-05T18:00:28.750Z,98035.44
2022-11-05T18:03:36.433Z,98039.97
2022-11-05T18:06:40.114Z,98039.97
2022-11-05T18:09:42.540Z,98043.28
2022-11-05T18:12:45.635Z,98047.00
2022-11-05T18:15:47.898Z,98049.06
2022-11-05T18:18:49.869Z,98051.00
2022-11-05T18:21:51.882Z,98057.63
2022-11-05T18:24:54.838Z,98064.50
2022-11-05T18:27:57.135Z,98064.50
2022-11-05T18:30:58.980Z,98054.28
2022-11-05T18:34:01.099Z,98055.94
2022-11-05T18:37:03.380Z,98062.84
2022-11-05T18:40:06.693Z,98066.13
2022-11-05T18:43:09.139Z,98068.47
2022-11-05T18:46:29.320Z,98063.78
2022-11-05T18:49:39.462Z,98072.34
2022-11-05T18:52:41.635Z,98073.03
2022-11-05T18:55:43.787Z,98076.34
2022-11-05T18:58:46.804Z,98092.03
2022-11-05T19:01:49.656Z,98086.53
2022-11-05T19:05:22.141Z,98090.13
2022-11-05T19:08:14.273Z,98090.41
2022-11-05T19:11:19.851Z,98104.19
2022-11-05T19:14:22.475Z,98099.88
2022-11-05T19:17:25.037Z,98096.72
2022-11-05T19:20:28.169Z,98111.88
2022-11-05T19:23:31.197Z,98110.34
2022-11-05T19:26:33.251Z,98116.56
2022-11-05T19:29:35.450Z,98117.38
2022-11-05T19:33:31.054Z,98128.00
2022-11-05T19:36:34.275Z,98132.97
2022-11-05T19:39:37.012Z,98135.31
2022-11-05T19:42:39.334Z,98136.53
2022-11-05T19:45:44.932Z,98133.50
2022-11-05T19:48:48.409Z,98149.34
2022-11-05T19:51:50.501Z,98149.22
2022-11-05T19:54:52.318Z,98140.84
2022-11-05T19:57:54.430Z,98150.47
2022-11-05T20:00:56.723Z,98161.88
2022-11-05T20:04:00.584Z,98160.25
2022-11-05T20:07:04.423Z,98158.88
2022-11-05T20:10:09.438Z,98171.41
2022-11-05T20:13:18.570Z,98170.53
2022-11-05T20:16:32.585Z,98174.94
2022-11-05T20:19:35.880Z,98170.44
2022-11-05T20:22:38.936Z,98176.91
2022-11-05T20:25:42.800Z,98183.34
2022-11-05T20:28:45.923Z,98183.19
2022-11-05T20:31:48.551Z,98186.94
2022-11-05T20:34:50.998Z,98194.25
2022-11-05T20:37:54.350Z,98191.19
2022-11-05T20:40:56.879Z,98187.59
2022-11-05T20:43:59.523Z,98196.69
2022-11-05T20:47:01.881Z,98193.13
2022-11-05T20:50:05.109Z,98200.81
2022-11-05T20:53:09.330Z,98204.13
2022-11-05T20:56:24.627Z,98201.25
2022-11-05T20:59:27.209Z,98196.28
2022-11-05T21:02:29.517Z,98203.97
2022-11-05T21:05:35.518Z,98199.88
2022-11-05T21:08:38.397Z,98198.63
2022-11-05T21:11:59.071Z,98198.63
2022-11-05T21:15:01.310Z,98205.25
2022-11-05T21:18:04.432Z,98210.75
2022-11-05T21:21:15.455Z,98212.38
2022-11-05T21:24:17.762Z,98210.22
2022-11-05T21:27:19.787Z,98217.22
2022-11-05T21:30:22.066Z,98206.22
2022-11-05T21:33:24.107Z,98209.50
2022-11-05T21:36:26.297Z,98216.41
2022-11-05T21:39:29.109Z,98211.03
2022-11-05T21:42:31.221Z,98211.47
2022-11-05T21:45:33.556Z,98216.16
2022-11-05T21:48:36.998Z,98220.41
2022-11-05T21:51:57.680Z,98214.47
2022-11-05T21:55:18.926Z,98215.19
2022-11-05T21:58:40.492Z,98214.34
2022-11-05T22:01:44.636Z,98216.16
2022-11-05T22:04:52.745Z,98212.00
2022-11-05T22:07:55.044Z,98201.66
2022-11-05T22:10:56.971Z,98209.66
2022-11-05T22:13:59.043Z,98213.34
2022-11-05T22:17:01.440Z,98207.72
2022-11-05T22:20:04.540Z,98212.38
2022-11-05T22:23:11.118Z,98203.84
2022-11-05T22:26:13.856Z,98207.72
2022-11-05T22:29:16.523Z,98216.75
2022-11-05T22:32:18.757Z,98206.19
2022-11-05T22:35:20.740Z,98209.63
2022-11-05T22:38:22.809Z,98212.22
2022-11-05T22:41:24.969Z,98222.00
2022-11-05T22:44:27.709Z,98216.09
2022-11-05T22:47:29.650Z,98206.28
2022-11-05T22:50:33.592Z,98215.94
2022-11-05T22:53:36.848Z,98210.19
2022-11-05T22:56:41.268Z,98212.22
2022-11-05T22:59:43.266Z,98215.81
2022-11-05T23:02:45.480Z,98219.13
2022-11-05T23:05:47.525Z,98218.69
2022-11-05T23:09:07.964Z,98225.31
2022-11-05T23:12:23.500Z,98222.69
2022-11-05T23:15:44.038Z,98214.31
2022-11-05T23:19:04.452Z,98209.06
2022-11-05T23:22:30.268Z,98217.59
2022-11-05T23:25:32.030Z,98218.22
2022-11-05T23:28:33.865Z,98217.16
2022-11-05T23:31:54.489Z,98225.50
2022-11-05T23:34:59.670Z,98218.97
2022-11-05T23:38:20.167Z,98218.00
2022-11-05T23:41:40.507Z,98228.00
2022-11-05T23:45:01.002Z,98226.91
2022-11-05T23:48:18.773Z,98218.22
2022-11-05T23:51:20.702Z,98222.47
2022-11-05T23:54:22.566Z,98227.28
2022-11-05T23:57:24.309Z,98227.78
